sensor_id;sensor_type;location;lat;lon;timestamp;P1;durP1;ratioP1;P2;durP2;ratioP2
5285;SDS011;2665;53.112;7.358;2023-04-29T00:01:32;19.50;;;12.83;;
5285;SDS011;2665;53.112;7.358;2023-04-29T00:03:58;23.03;;;14.40;;
5285;SDS011;2665;53.112;7.358;2023-04-29T00:06:24;27.93;;;14.17;;
5285;SDS011;2665;53.112;7.358;2023-04-29T00:08:50;20.60;;;13.37;;
5285;SDS011;2665;53.112;7.358;2023-04-29T00:11:17;20.83;;;14.00;;
5285;SDS011;2665;53.112;7.358;2023-04-29T00:13:43;24.20;;;15.07;;
5285;SDS011;2665;53.112;7.358;2023-04-29T00:16:09;20.33;;;13.70;;
5285;SDS011;2665;53.112;7.358;2023-04-29T00:18:35;20.60;;;14.53;;
5285;SDS011;2665;53.112;7.358;2023-04-29T00:21:01;24.50;;;14.90;;
5285;SDS011;2665;53.112;7.358;2023-04-29T00:23:30;21.47;;;12.83;;
5285;SDS011;2665;53.112;7.358;2023-04-29T00:25:56;24.50;;;13.60;;
5285;SDS011;2665;53.112;7.358;2023-04-29T00:28:22;26.27;;;14.97;;
5285;SDS011;2665;53.112;7.358;2023-04-29T00:30:48;26.60;;;15.50;;
5285;SDS011;2665;53.112;7.358;2023-04-29T00:33:14;23.47;;;15.17;;
5285;SDS011;2665;53.112;7.358;2023-04-29T00:35:40;25.17;;;15.13;;
5285;SDS011;2665;53.112;7.358;2023-04-29T00:38:06;25.27;;;15.40;;
5285;SDS011;2665;53.112;7.358;2023-04-29T00:40:32;26.03;;;16.00;;
5285;SDS011;2665;53.112;7.358;2023-04-29T00:42:58;29.73;;;16.47;;
5285;SDS011;2665;53.112;7.358;2023-04-29T00:45:24;22.83;;;14.80;;
5285;SDS011;2665;53.112;7.358;2023-04-29T00:47:51;26.67;;;17.60;;
5285;SDS011;2665;53.112;7.358;2023-04-29T00:50:17;25.17;;;15.30;;
5285;SDS011;2665;53.112;7.358;2023-04-29T00:52:43;25.33;;;15.23;;
5285;SDS011;2665;53.112;7.358;2023-04-29T00:55:10;28.00;;;16.40;;
5285;SDS011;2665;53.112;7.358;2023-04-29T00:57:39;26.23;;;15.20;;
5285;SDS011;2665;53.112;7.358;2023-04-29T01:00:05;25.33;;;16.20;;
5285;SDS011;2665;53.112;7.358;2023-04-29T01:02:33;27.80;;;15.37;;
5285;SDS011;2665;53.112;7.358;2023-04-29T01:05:00;22.70;;;15.27;;
5285;SDS011;2665;53.112;7.358;2023-04-29T01:07:30;31.23;;;16.00;;
5285;SDS011;2665;53.112;7.358;2023-04-29T01:10:14;26.13;;;16.33;;
5285;SDS011;2665;53.112;7.358;2023-04-29T01:12:45;24.00;;;15.17;;
5285;SDS011;2665;53.112;7.358;2023-04-29T01:15:21;23.13;;;13.70;;
5285;SDS011;2665;53.112;7.358;2023-04-29T01:17:49;31.37;;;13.40;;
5285;SDS011;2665;53.112;7.358;2023-04-29T01:20:16;26.23;;;14.53;;
5285;SDS011;2665;53.112;7.358;2023-04-29T01:22:42;26.53;;;14.80;;
5285;SDS011;2665;53.112;7.358;2023-04-29T01:25:09;24.03;;;14.53;;
5285;SDS011;2665;53.112;7.358;2023-04-29T01:30:55;26.73;;;13.10;;
5285;SDS011;2665;53.112;7.358;2023-04-29T01:43:03;21.13;;;11.97;;
5285;SDS011;2665;53.112;7.358;2023-04-29T01:45:33;23.87;;;13.00;;
5285;SDS011;2665;53.112;7.358;2023-04-29T01:47:59;21.53;;;14.03;;
5285;SDS011;2665;53.112;7.358;2023-04-29T01:50:26;22.97;;;12.53;;
5285;SDS011;2665;53.112;7.358;2023-04-29T01:52:52;18.73;;;12.97;;
5285;SDS011;2665;53.112;7.358;2023-04-29T01:55:18;21.40;;;12.77;;
5285;SDS011;2665;53.112;7.358;2023-04-29T01:57:45;21.83;;;11.90;;
5285;SDS011;2665;53.112;7.358;2023-04-29T02:00:11;26.20;;;11.63;;
5285;SDS011;2665;53.112;7.358;2023-04-29T02:02:37;22.93;;;11.50;;
5285;SDS011;2665;53.112;7.358;2023-04-29T02:05:04;34.00;;;11.57;;
5285;SDS011;2665;53.112;7.358;2023-04-29T02:07:30;17.83;;;10.30;;
5285;SDS011;2665;53.112;7.358;2023-04-29T02:09:56;19.30;;;10.60;;
5285;SDS011;2665;53.112;7.358;2023-04-29T02:12:22;15.77;;;9.47;;
5285;SDS011;2665;53.112;7.358;2023-04-29T02:14:50;27.60;;;11.83;;
5285;SDS011;2665;53.112;7.358;2023-04-29T02:17:17;19.43;;;10.97;;
5285;SDS011;2665;53.112;7.358;2023-04-29T02:19:43;20.27;;;11.77;;
5285;SDS011;2665;53.112;7.358;2023-04-29T02:22:09;17.07;;;11.53;;
5285;SDS011;2665;53.112;7.358;2023-04-29T02:24:37;18.00;;;10.60;;
5285;SDS011;2665;53.112;7.358;2023-04-29T02:27:03;22.17;;;11.87;;
5285;SDS011;2665;53.112;7.358;2023-04-29T02:29:32;21.50;;;11.40;;
5285;SDS011;2665;53.112;7.358;2023-04-29T02:31:58;19.53;;;12.17;;
5285;SDS011;2665;53.112;7.358;2023-04-29T02:34:24;24.83;;;11.50;;
5285;SDS011;2665;53.112;7.358;2023-04-29T02:36:50;18.80;;;11.20;;
5285;SDS011;2665;53.112;7.358;2023-04-29T02:39:16;28.97;;;13.17;;
5285;SDS011;2665;53.112;7.358;2023-04-29T02:41:42;20.87;;;10.10;;
5285;SDS011;2665;53.112;7.358;2023-04-29T02:44:08;17.97;;;11.33;;
5285;SDS011;2665;53.112;7.358;2023-04-29T02:46:34;29.30;;;13.23;;
5285;SDS011;2665;53.112;7.358;2023-04-29T02:49:01;20.63;;;12.53;;
5285;SDS011;2665;53.112;7.358;2023-04-29T02:51:27;26.13;;;11.37;;
5285;SDS011;2665;53.112;7.358;2023-04-29T02:53:54;31.33;;;12.83;;
5285;SDS011;2665;53.112;7.358;2023-04-29T02:56:21;26.00;;;14.10;;
5285;SDS011;2665;53.112;7.358;2023-04-29T02:58:47;22.13;;;12.10;;
5285;SDS011;2665;53.112;7.358;2023-04-29T03:01:13;18.70;;;11.70;;
5285;SDS011;2665;53.112;7.358;2023-04-29T03:03:39;23.73;;;11.73;;
5285;SDS011;2665;53.112;7.358;2023-04-29T03:06:05;19.90;;;12.23;;
5285;SDS011;2665;53.112;7.358;2023-04-29T03:08:31;22.03;;;12.67;;
5285;SDS011;2665;53.112;7.358;2023-04-29T03:10:58;17.10;;;11.07;;
5285;SDS011;2665;53.112;7.358;2023-04-29T03:13:24;23.13;;;12.27;;
5285;SDS011;2665;53.112;7.358;2023-04-29T03:15:50;21.17;;;12.67;;
5285;SDS011;2665;53.112;7.358;2023-04-29T03:18:16;21.17;;;11.00;;
5285;SDS011;2665;53.112;7.358;2023-04-29T03:20:42;17.53;;;10.33;;
5285;SDS011;2665;53.112;7.358;2023-04-29T03:23:08;20.10;;;11.00;;
5285;SDS011;2665;53.112;7.358;2023-04-29T03:25:34;20.17;;;8.90;;
5285;SDS011;2665;53.112;7.358;2023-04-29T03:28:01;21.47;;;10.40;;
5285;SDS011;2665;53.112;7.358;2023-04-29T03:30:27;18.23;;;9.43;;
5285;SDS011;2665;53.112;7.358;2023-04-29T03:32:53;19.87;;;11.07;;
5285;SDS011;2665;53.112;7.358;2023-04-29T03:35:19;17.97;;;10.70;;
5285;SDS011;2665;53.112;7.358;2023-04-29T03:37:45;19.30;;;10.80;;
5285;SDS011;2665;53.112;7.358;2023-04-29T03:40:11;23.40;;;11.37;;
5285;SDS011;2665;53.112;7.358;2023-04-29T03:42:38;22.20;;;11.47;;
5285;SDS011;2665;53.112;7.358;2023-04-29T03:45:04;28.30;;;10.10;;
5285;SDS011;2665;53.112;7.358;2023-04-29T03:47:30;27.17;;;11.33;;
5285;SDS011;2665;53.112;7.358;2023-04-29T03:49:57;20.63;;;10.60;;
5285;SDS011;2665;53.112;7.358;2023-04-29T03:52:23;24.43;;;11.00;;
5285;SDS011;2665;53.112;7.358;2023-04-29T03:54:49;24.80;;;10.53;;
5285;SDS011;2665;53.112;7.358;2023-04-29T03:57:15;23.10;;;10.50;;
5285;SDS011;2665;53.112;7.358;2023-04-29T03:59:41;17.87;;;10.30;;
5285;SDS011;2665;53.112;7.358;2023-04-29T04:02:07;21.37;;;10.40;;
5285;SDS011;2665;53.112;7.358;2023-04-29T04:04:33;21.80;;;9.97;;
5285;SDS011;2665;53.112;7.358;2023-04-29T04:07:00;16.93;;;10.10;;
5285;SDS011;2665;53.112;7.358;2023-04-29T04:09:26;22.37;;;10.97;;
5285;SDS011;2665;53.112;7.358;2023-04-29T04:11:52;22.03;;;10.70;;
5285;SDS011;2665;53.112;7.358;2023-04-29T04:14:18;25.90;;;10.67;;
5285;SDS011;2665;53.112;7.358;2023-04-29T04:16:44;18.33;;;9.90;;
5285;SDS011;2665;53.112;7.358;2023-04-29T04:19:10;22.70;;;9.60;;
5285;SDS011;2665;53.112;7.358;2023-04-29T04:21:36;17.70;;;9.03;;
5285;SDS011;2665;53.112;7.358;2023-04-29T04:24:02;18.60;;;8.83;;
5285;SDS011;2665;53.112;7.358;2023-04-29T04:26:28;20.70;;;9.63;;
5285;SDS011;2665;53.112;7.358;2023-04-29T04:28:54;17.07;;;10.47;;
5285;SDS011;2665;53.112;7.358;2023-04-29T04:31:20;19.03;;;9.10;;
5285;SDS011;2665;53.112;7.358;2023-04-29T04:33:46;16.77;;;9.53;;
5285;SDS011;2665;53.112;7.358;2023-04-29T04:36:12;18.60;;;9.50;;
5285;SDS011;2665;53.112;7.358;2023-04-29T04:38:38;28.57;;;10.70;;
5285;SDS011;2665;53.112;7.358;2023-04-29T04:41:05;17.43;;;8.77;;
5285;SDS011;2665;53.112;7.358;2023-04-29T04:43:32;28.90;;;10.87;;
5285;SDS011;2665;53.112;7.358;2023-04-29T04:45:58;17.37;;;9.60;;
5285;SDS011;2665;53.112;7.358;2023-04-29T04:48:24;21.57;;;9.47;;
5285;SDS011;2665;53.112;7.358;2023-04-29T04:50:50;21.63;;;10.00;;
5285;SDS011;2665;53.112;7.358;2023-04-29T04:53:16;20.83;;;8.77;;
5285;SDS011;2665;53.112;7.358;2023-04-29T04:55:42;18.87;;;9.83;;
5285;SDS011;2665;53.112;7.358;2023-04-29T04:58:08;19.43;;;9.03;;
5285;SDS011;2665;53.112;7.358;2023-04-29T05:00:34;20.30;;;10.23;;
5285;SDS011;2665;53.112;7.358;2023-04-29T05:03:00;23.00;;;9.10;;
5285;SDS011;2665;53.112;7.358;2023-04-29T05:05:26;15.03;;;9.10;;
5285;SDS011;2665;53.112;7.358;2023-04-29T05:07:52;18.77;;;9.57;;
5285;SDS011;2665;53.112;7.358;2023-04-29T05:10:18;18.23;;;10.17;;
5285;SDS011;2665;53.112;7.358;2023-04-29T05:12:44;16.30;;;9.40;;
5285;SDS011;2665;53.112;7.358;2023-04-29T05:15:10;20.93;;;9.83;;
5285;SDS011;2665;53.112;7.358;2023-04-29T05:17:38;18.97;;;11.63;;
5285;SDS011;2665;53.112;7.358;2023-04-29T05:20:05;16.00;;;9.30;;
5285;SDS011;2665;53.112;7.358;2023-04-29T05:22:31;24.27;;;11.27;;
5285;SDS011;2665;53.112;7.358;2023-04-29T05:24:57;24.33;;;10.30;;
5285;SDS011;2665;53.112;7.358;2023-04-29T05:27:27;18.80;;;9.87;;
5285;SDS011;2665;53.112;7.358;2023-04-29T05:29:53;19.20;;;10.50;;
5285;SDS011;2665;53.112;7.358;2023-04-29T05:32:19;17.30;;;10.43;;
5285;SDS011;2665;53.112;7.358;2023-04-29T05:34:46;15.60;;;9.20;;
5285;SDS011;2665;53.112;7.358;2023-04-29T05:37:12;18.47;;;9.97;;
5285;SDS011;2665;53.112;7.358;2023-04-29T05:39:38;15.17;;;8.40;;
5285;SDS011;2665;53.112;7.358;2023-04-29T05:42:04;16.27;;;9.23;;
5285;SDS011;2665;53.112;7.358;2023-04-29T05:44:31;15.07;;;8.97;;
5285;SDS011;2665;53.112;7.358;2023-04-29T05:46:57;16.70;;;9.07;;
5285;SDS011;2665;53.112;7.358;2023-04-29T05:49:23;12.13;;;7.33;;
5285;SDS011;2665;53.112;7.358;2023-04-29T05:51:49;13.93;;;8.83;;
5285;SDS011;2665;53.112;7.358;2023-04-29T05:54:15;17.03;;;9.60;;
5285;SDS011;2665;53.112;7.358;2023-04-29T05:56:41;14.07;;;7.20;;
5285;SDS011;2665;53.112;7.358;2023-04-29T05:59:07;17.60;;;8.13;;
5285;SDS011;2665;53.112;7.358;2023-04-29T06:01:33;15.33;;;9.10;;
5285;SDS011;2665;53.112;7.358;2023-04-29T06:03:59;18.50;;;9.10;;
5285;SDS011;2665;53.112;7.358;2023-04-29T06:06:25;12.50;;;7.57;;
5285;SDS011;2665;53.112;7.358;2023-04-29T06:08:52;15.87;;;7.20;;
5285;SDS011;2665;53.112;7.358;2023-04-29T06:11:18;14.10;;;7.90;;
5285;SDS011;2665;53.112;7.358;2023-04-29T06:13:45;16.50;;;8.70;;
5285;SDS011;2665;53.112;7.358;2023-04-29T06:16:11;14.40;;;8.43;;
5285;SDS011;2665;53.112;7.358;2023-04-29T06:18:37;14.53;;;8.80;;
5285;SDS011;2665;53.112;7.358;2023-04-29T06:21:03;18.30;;;8.70;;
5285;SDS011;2665;53.112;7.358;2023-04-29T06:23:29;14.37;;;7.70;;
5285;SDS011;2665;53.112;7.358;2023-04-29T06:25:56;10.90;;;7.60;;
5285;SDS011;2665;53.112;7.358;2023-04-29T06:28:22;13.80;;;7.97;;
5285;SDS011;2665;53.112;7.358;2023-04-29T06:30:48;15.60;;;7.87;;
5285;SDS011;2665;53.112;7.358;2023-04-29T06:33:15;18.50;;;8.10;;
5285;SDS011;2665;53.112;7.358;2023-04-29T06:35:41;14.83;;;7.30;;
5285;SDS011;2665;53.112;7.358;2023-04-29T06:38:07;23.17;;;7.90;;
5285;SDS011;2665;53.112;7.358;2023-04-29T06:40:33;12.73;;;7.23;;
5285;SDS011;2665;53.112;7.358;2023-04-29T06:42:59;9.70;;;6.50;;
5285;SDS011;2665;53.112;7.358;2023-04-29T06:45:26;13.63;;;7.67;;
5285;SDS011;2665;53.112;7.358;2023-04-29T06:47:52;16.17;;;7.93;;
5285;SDS011;2665;53.112;7.358;2023-04-29T06:50:18;9.27;;;6.60;;
5285;SDS011;2665;53.112;7.358;2023-04-29T06:52:45;10.47;;;6.83;;
5285;SDS011;2665;53.112;7.358;2023-04-29T06:55:11;15.30;;;8.20;;
5285;SDS011;2665;53.112;7.358;2023-04-29T06:57:37;13.43;;;7.50;;
5285;SDS011;2665;53.112;7.358;2023-04-29T07:00:03;11.97;;;7.70;;
5285;SDS011;2665;53.112;7.358;2023-04-29T07:02:29;13.37;;;7.47;;
5285;SDS011;2665;53.112;7.358;2023-04-29T07:04:55;20.73;;;8.33;;
5285;SDS011;2665;53.112;7.358;2023-04-29T07:07:21;15.73;;;8.17;;
5285;SDS011;2665;53.112;7.358;2023-04-29T07:09:48;11.83;;;6.83;;
5285;SDS011;2665;53.112;7.358;2023-04-29T07:12:15;20.60;;;6.80;;
5285;SDS011;2665;53.112;7.358;2023-04-29T07:14:42;11.43;;;6.67;;
5285;SDS011;2665;53.112;7.358;2023-04-29T07:17:08;10.37;;;6.63;;
5285;SDS011;2665;53.112;7.358;2023-04-29T07:19:34;14.27;;;6.50;;
5285;SDS011;2665;53.112;7.358;2023-04-29T07:22:00;10.73;;;6.73;;
5285;SDS011;2665;53.112;7.358;2023-04-29T07:24:26;13.57;;;6.60;;
5285;SDS011;2665;53.112;7.358;2023-04-29T07:26:52;12.00;;;7.07;;
5285;SDS011;2665;53.112;7.358;2023-04-29T07:29:18;11.97;;;6.30;;
5285;SDS011;2665;53.112;7.358;2023-04-29T07:31:45;12.93;;;6.10;;
5285;SDS011;2665;53.112;7.358;2023-04-29T07:34:11;13.20;;;7.10;;
5285;SDS011;2665;53.112;7.358;2023-04-29T07:36:37;12.30;;;6.77;;
5285;SDS011;2665;53.112;7.358;2023-04-29T07:39:03;10.10;;;5.70;;
5285;SDS011;2665;53.112;7.358;2023-04-29T07:41:29;12.40;;;7.10;;
5285;SDS011;2665;53.112;7.358;2023-04-29T07:43:55;13.93;;;6.70;;
5285;SDS011;2665;53.112;7.358;2023-04-29T07:46:21;9.20;;;5.63;;
5285;SDS011;2665;53.112;7.358;2023-04-29T07:48:47;11.10;;;5.67;;
5285;SDS011;2665;53.112;7.358;2023-04-29T07:51:13;9.27;;;5.70;;
5285;SDS011;2665;53.112;7.358;2023-04-29T07:53:40;8.80;;;5.90;;
5285;SDS011;2665;53.112;7.358;2023-04-29T07:56:06;6.73;;;5.00;;
5285;SDS011;2665;53.112;7.358;2023-04-29T07:58:33;8.80;;;4.73;;
5285;SDS011;2665;53.112;7.358;2023-04-29T08:01:06;8.50;;;5.63;;
5285;SDS011;2665;53.112;7.358;2023-04-29T08:03:33;7.77;;;5.10;;
5285;SDS011;2665;53.112;7.358;2023-04-29T08:05:59;7.10;;;4.93;;
5285;SDS011;2665;53.112;7.358;2023-04-29T08:08:26;9.17;;;4.60;;
5285;SDS011;2665;53.112;7.358;2023-04-29T08:10:52;10.17;;;5.00;;
5285;SDS011;2665;53.112;7.358;2023-04-29T08:13:17;6.40;;;4.53;;
5285;SDS011;2665;53.112;7.358;2023-04-29T08:15:43;7.33;;;4.50;;
5285;SDS011;2665;53.112;7.358;2023-04-29T08:18:08;5.77;;;4.17;;
5285;SDS011;2665;53.112;7.358;2023-04-29T08:20:34;9.47;;;5.17;;
5285;SDS011;2665;53.112;7.358;2023-04-29T08:23:00;9.50;;;4.63;;
5285;SDS011;2665;53.112;7.358;2023-04-29T08:25:26;7.30;;;4.73;;
5285;SDS011;2665;53.112;7.358;2023-04-29T08:27:51;8.37;;;4.30;;
5285;SDS011;2665;53.112;7.358;2023-04-29T08:30:17;9.83;;;6.40;;
5285;SDS011;2665;53.112;7.358;2023-04-29T08:32:43;5.23;;;3.97;;
5285;SDS011;2665;53.112;7.358;2023-04-29T08:35:09;5.97;;;4.60;;
5285;SDS011;2665;53.112;7.358;2023-04-29T08:37:35;6.67;;;4.90;;
5285;SDS011;2665;53.112;7.358;2023-04-29T08:40:01;6.43;;;3.80;;
5285;SDS011;2665;53.112;7.358;2023-04-29T08:42:31;7.37;;;4.37;;
5285;SDS011;2665;53.112;7.358;2023-04-29T08:44:59;5.67;;;4.03;;
5285;SDS011;2665;53.112;7.358;2023-04-29T08:47:26;6.83;;;4.77;;
5285;SDS011;2665;53.112;7.358;2023-04-29T08:49:57;6.50;;;4.40;;
5285;SDS011;2665;53.112;7.358;2023-04-29T08:52:30;7.00;;;4.10;;
5285;SDS011;2665;53.112;7.358;2023-04-29T08:54:57;6.80;;;4.23;;
5285;SDS011;2665;53.112;7.358;2023-04-29T08:57:24;6.57;;;4.40;;
5285;SDS011;2665;53.112;7.358;2023-04-29T08:59:51;7.37;;;3.90;;
5285;SDS011;2665;53.112;7.358;2023-04-29T09:02:17;6.13;;;4.33;;
5285;SDS011;2665;53.112;7.358;2023-04-29T09:04:52;7.27;;;4.43;;
5285;SDS011;2665;53.112;7.358;2023-04-29T09:07:24;6.63;;;3.77;;
5285;SDS011;2665;53.112;7.358;2023-04-29T09:09:52;7.93;;;4.73;;
5285;SDS011;2665;53.112;7.358;2023-04-29T09:12:19;7.27;;;4.23;;
5285;SDS011;2665;53.112;7.358;2023-04-29T09:14:45;6.30;;;3.70;;
5285;SDS011;2665;53.112;7.358;2023-04-29T09:17:10;4.33;;;3.40;;
5285;SDS011;2665;53.112;7.358;2023-04-29T09:19:36;7.90;;;4.00;;
5285;SDS011;2665;53.112;7.358;2023-04-29T09:22:02;5.33;;;3.93;;
5285;SDS011;2665;53.112;7.358;2023-04-29T09:24:29;5.77;;;4.17;;
5285;SDS011;2665;53.112;7.358;2023-04-29T09:26:55;5.30;;;4.00;;
5285;SDS011;2665;53.112;7.358;2023-04-29T09:29:22;5.00;;;3.20;;
5285;SDS011;2665;53.112;7.358;2023-04-29T09:31:48;6.20;;;3.60;;
5285;SDS011;2665;53.112;7.358;2023-04-29T09:34:15;7.43;;;3.43;;
5285;SDS011;2665;53.112;7.358;2023-04-29T09:36:47;4.50;;;3.07;;
5285;SDS011;2665;53.112;7.358;2023-04-29T09:39:18;10.47;;;3.93;;
5285;SDS011;2665;53.112;7.358;2023-04-29T09:44:19;9.10;;;3.87;;
5285;SDS011;2665;53.112;7.358;2023-04-29T09:47:00;5.17;;;3.30;;
5285;SDS011;2665;53.112;7.358;2023-04-29T09:52:06;8.67;;;4.10;;
5285;SDS011;2665;53.112;7.358;2023-04-29T09:54:35;12.27;;;4.53;;
5285;SDS011;2665;53.112;7.358;2023-04-29T09:57:03;5.60;;;3.33;;
5285;SDS011;2665;53.112;7.358;2023-04-29T09:59:33;6.27;;;3.70;;
5285;SDS011;2665;53.112;7.358;2023-04-29T10:02:01;6.30;;;3.67;;
5285;SDS011;2665;53.112;7.358;2023-04-29T10:04:43;7.00;;;3.47;;
5285;SDS011;2665;53.112;7.358;2023-04-29T10:07:14;9.10;;;3.80;;
5285;SDS011;2665;53.112;7.358;2023-04-29T10:09:44;8.53;;;4.07;;
5285;SDS011;2665;53.112;7.358;2023-04-29T10:12:18;5.30;;;3.33;;
5285;SDS011;2665;53.112;7.358;2023-04-29T10:14:50;7.23;;;2.93;;
5285;SDS011;2665;53.112;7.358;2023-04-29T10:17:25;5.57;;;3.17;;
5285;SDS011;2665;53.112;7.358;2023-04-29T10:22:33;7.20;;;3.20;;
5285;SDS011;2665;53.112;7.358;2023-04-29T10:25:08;6.40;;;3.40;;
5285;SDS011;2665;53.112;7.358;2023-04-29T10:27:36;6.83;;;3.70;;
5285;SDS011;2665;53.112;7.358;2023-04-29T10:30:02;9.93;;;4.10;;
5285;SDS011;2665;53.112;7.358;2023-04-29T10:32:29;5.30;;;3.30;;
5285;SDS011;2665;53.112;7.358;2023-04-29T10:34:58;7.27;;;3.30;;
5285;SDS011;2665;53.112;7.358;2023-04-29T10:37:26;4.27;;;3.23;;
5285;SDS011;2665;53.112;7.358;2023-04-29T10:39:56;5.50;;;3.30;;
5285;SDS011;2665;53.112;7.358;2023-04-29T10:42:50;7.00;;;3.23;;
5285;SDS011;2665;53.112;7.358;2023-04-29T10:45:30;6.10;;;3.57;;
5285;SDS011;2665;53.112;7.358;2023-04-29T10:53:17;6.70;;;3.20;;
5285;SDS011;2665;53.112;7.358;2023-04-29T10:56:03;5.00;;;3.30;;
5285;SDS011;2665;53.112;7.358;2023-04-29T11:01:11;7.50;;;2.40;;
5285;SDS011;2665;53.112;7.358;2023-04-29T11:06:13;4.70;;;3.20;;
5285;SDS011;2665;53.112;7.358;2023-04-29T11:08:39;4.23;;;2.80;;
5285;SDS011;2665;53.112;7.358;2023-04-29T11:11:06;7.07;;;3.10;;
5285;SDS011;2665;53.112;7.358;2023-04-29T11:13:32;4.80;;;2.70;;
5285;SDS011;2665;53.112;7.358;2023-04-29T11:16:05;5.90;;;2.83;;
5285;SDS011;2665;53.112;7.358;2023-04-29T11:18:33;4.43;;;2.83;;
5285;SDS011;2665;53.112;7.358;2023-04-29T11:23:37;4.40;;;2.23;;
5285;SDS011;2665;53.112;7.358;2023-04-29T11:26:06;3.63;;;2.47;;
5285;SDS011;2665;53.112;7.358;2023-04-29T11:28:33;9.07;;;3.17;;
5285;SDS011;2665;53.112;7.358;2023-04-29T11:30:59;6.10;;;3.00;;
5285;SDS011;2665;53.112;7.358;2023-04-29T11:33:25;4.00;;;2.97;;
5285;SDS011;2665;53.112;7.358;2023-04-29T11:35:52;4.83;;;2.50;;
5285;SDS011;2665;53.112;7.358;2023-04-29T11:38:22;8.77;;;2.63;;
5285;SDS011;2665;53.112;7.358;2023-04-29T11:40:49;7.03;;;2.60;;
5285;SDS011;2665;53.112;7.358;2023-04-29T11:43:16;3.70;;;2.23;;
5285;SDS011;2665;53.112;7.358;2023-04-29T11:45:43;4.57;;;2.50;;
5285;SDS011;2665;53.112;7.358;2023-04-29T11:48:16;5.37;;;3.50;;
5285;SDS011;2665;53.112;7.358;2023-04-29T11:50:45;3.33;;;2.43;;
5285;SDS011;2665;53.112;7.358;2023-04-29T11:53:12;3.23;;;2.03;;
5285;SDS011;2665;53.112;7.358;2023-04-29T11:55:40;3.53;;;2.07;;
5285;SDS011;2665;53.112;7.358;2023-04-29T11:58:07;2.93;;;2.27;;
5285;SDS011;2665;53.112;7.358;2023-04-29T12:00:33;6.57;;;2.63;;
5285;SDS011;2665;53.112;7.358;2023-04-29T12:03:00;2.53;;;1.60;;
5285;SDS011;2665;53.112;7.358;2023-04-29T12:05:26;3.33;;;1.80;;
5285;SDS011;2665;53.112;7.358;2023-04-29T12:07:53;2.43;;;1.30;;
5285;SDS011;2665;53.112;7.358;2023-04-29T12:10:19;5.17;;;1.30;;
5285;SDS011;2665;53.112;7.358;2023-04-29T12:12:46;3.90;;;1.67;;
5285;SDS011;2665;53.112;7.358;2023-04-29T12:15:13;2.83;;;1.10;;
5285;SDS011;2665;53.112;7.358;2023-04-29T12:17:39;2.60;;;1.17;;
5285;SDS011;2665;53.112;7.358;2023-04-29T12:20:06;4.33;;;1.63;;
5285;SDS011;2665;53.112;7.358;2023-04-29T12:22:34;4.50;;;1.70;;
5285;SDS011;2665;53.112;7.358;2023-04-29T12:25:03;2.30;;;1.30;;
5285;SDS011;2665;53.112;7.358;2023-04-29T12:27:30;1.93;;;1.30;;
5285;SDS011;2665;53.112;7.358;2023-04-29T12:29:57;2.30;;;1.60;;
5285;SDS011;2665;53.112;7.358;2023-04-29T12:32:24;5.30;;;1.50;;
5285;SDS011;2665;53.112;7.358;2023-04-29T12:34:50;3.50;;;1.73;;
5285;SDS011;2665;53.112;7.358;2023-04-29T12:37:17;2.93;;;1.10;;
5285;SDS011;2665;53.112;7.358;2023-04-29T12:39:43;3.27;;;1.60;;
5285;SDS011;2665;53.112;7.358;2023-04-29T12:42:16;3.73;;;1.40;;
5285;SDS011;2665;53.112;7.358;2023-04-29T12:44:45;2.97;;;1.40;;
5285;SDS011;2665;53.112;7.358;2023-04-29T12:47:11;3.00;;;1.60;;
5285;SDS011;2665;53.112;7.358;2023-04-29T12:49:41;7.07;;;1.67;;
5285;SDS011;2665;53.112;7.358;2023-04-29T12:52:08;2.70;;;1.63;;
5285;SDS011;2665;53.112;7.358;2023-04-29T12:54:37;3.37;;;1.63;;
5285;SDS011;2665;53.112;7.358;2023-04-29T12:57:07;2.10;;;1.60;;
5285;SDS011;2665;53.112;7.358;2023-04-29T12:59:34;4.40;;;1.53;;
5285;SDS011;2665;53.112;7.358;2023-04-29T13:02:01;2.70;;;1.10;;
5285;SDS011;2665;53.112;7.358;2023-04-29T13:04:27;2.67;;;1.37;;
5285;SDS011;2665;53.112;7.358;2023-04-29T13:06:53;3.63;;;1.30;;
5285;SDS011;2665;53.112;7.358;2023-04-29T13:09:24;4.60;;;1.33;;
5285;SDS011;2665;53.112;7.358;2023-04-29T13:11:50;3.77;;;1.50;;
5285;SDS011;2665;53.112;7.358;2023-04-29T13:14:17;2.33;;;1.57;;
5285;SDS011;2665;53.112;7.358;2023-04-29T13:16:43;4.37;;;1.00;;
5285;SDS011;2665;53.112;7.358;2023-04-29T13:19:10;2.73;;;1.73;;
5285;SDS011;2665;53.112;7.358;2023-04-29T13:21:37;3.40;;;1.13;;
5285;SDS011;2665;53.112;7.358;2023-04-29T13:24:03;3.30;;;1.27;;
5285;SDS011;2665;53.112;7.358;2023-04-29T13:26:29;2.87;;;1.23;;
5285;SDS011;2665;53.112;7.358;2023-04-29T13:28:55;2.87;;;1.20;;
5285;SDS011;2665;53.112;7.358;2023-04-29T13:31:21;1.90;;;1.10;;
5285;SDS011;2665;53.112;7.358;2023-04-29T13:33:47;4.93;;;1.10;;
5285;SDS011;2665;53.112;7.358;2023-04-29T13:36:13;2.13;;;0.90;;
5285;SDS011;2665;53.112;7.358;2023-04-29T13:38:39;5.07;;;1.40;;
5285;SDS011;2665;53.112;7.358;2023-04-29T13:41:05;2.00;;;0.80;;
5285;SDS011;2665;53.112;7.358;2023-04-29T13:43:32;1.40;;;0.60;;
5285;SDS011;2665;53.112;7.358;2023-04-29T13:45:58;4.63;;;1.40;;
5285;SDS011;2665;53.112;7.358;2023-04-29T13:48:24;1.90;;;0.80;;
5285;SDS011;2665;53.112;7.358;2023-04-29T13:50:50;2.00;;;1.00;;
5285;SDS011;2665;53.112;7.358;2023-04-29T13:53:16;1.87;;;0.90;;
5285;SDS011;2665;53.112;7.358;2023-04-29T13:55:42;2.03;;;0.73;;
5285;SDS011;2665;53.112;7.358;2023-04-29T13:58:09;2.57;;;1.00;;
5285;SDS011;2665;53.112;7.358;2023-04-29T14:00:35;1.43;;;0.73;;
5285;SDS011;2665;53.112;7.358;2023-04-29T14:03:03;3.40;;;1.00;;
5285;SDS011;2665;53.112;7.358;2023-04-29T14:05:31;2.00;;;0.93;;
5285;SDS011;2665;53.112;7.358;2023-04-29T14:07:57;2.97;;;1.20;;
5285;SDS011;2665;53.112;7.358;2023-04-29T14:10:23;2.80;;;2.10;;
5285;SDS011;2665;53.112;7.358;2023-04-29T14:12:49;3.37;;;1.10;;
5285;SDS011;2665;53.112;7.358;2023-04-29T14:15:15;2.67;;;0.90;;
5285;SDS011;2665;53.112;7.358;2023-04-29T14:17:41;4.37;;;1.40;;
5285;SDS011;2665;53.112;7.358;2023-04-29T14:20:07;2.20;;;1.20;;
5285;SDS011;2665;53.112;7.358;2023-04-29T14:22:33;3.50;;;1.40;;
5285;SDS011;2665;53.112;7.358;2023-04-29T14:24:59;3.33;;;1.33;;
5285;SDS011;2665;53.112;7.358;2023-04-29T14:27:26;3.30;;;1.47;;
5285;SDS011;2665;53.112;7.358;2023-04-29T14:29:52;2.23;;;1.50;;
5285;SDS011;2665;53.112;7.358;2023-04-29T14:32:18;3.77;;;1.70;;
5285;SDS011;2665;53.112;7.358;2023-04-29T14:34:44;2.93;;;1.80;;
5285;SDS011;2665;53.112;7.358;2023-04-29T14:37:10;4.90;;;2.00;;
5285;SDS011;2665;53.112;7.358;2023-04-29T14:39:36;2.50;;;1.97;;
5285;SDS011;2665;53.112;7.358;2023-04-29T14:42:02;3.90;;;2.40;;
5285;SDS011;2665;53.112;7.358;2023-04-29T14:44:29;4.27;;;2.83;;
5285;SDS011;2665;53.112;7.358;2023-04-29T14:46:55;3.37;;;2.23;;
5285;SDS011;2665;53.112;7.358;2023-04-29T14:49:21;3.50;;;2.23;;
5285;SDS011;2665;53.112;7.358;2023-04-29T14:51:47;5.90;;;2.60;;
5285;SDS011;2665;53.112;7.358;2023-04-29T14:54:13;3.67;;;1.60;;
5285;SDS011;2665;53.112;7.358;2023-04-29T14:56:38;6.63;;;2.33;;
5285;SDS011;2665;53.112;7.358;2023-04-29T14:59:04;4.83;;;2.47;;
5285;SDS011;2665;53.112;7.358;2023-04-29T15:01:32;3.60;;;2.00;;
5285;SDS011;2665;53.112;7.358;2023-04-29T15:03:58;3.93;;;2.00;;
5285;SDS011;2665;53.112;7.358;2023-04-29T15:06:25;3.33;;;1.90;;
5285;SDS011;2665;53.112;7.358;2023-04-29T15:08:51;3.93;;;2.23;;
5285;SDS011;2665;53.112;7.358;2023-04-29T15:11:17;3.07;;;1.70;;
5285;SDS011;2665;53.112;7.358;2023-04-29T15:13:43;2.40;;;1.40;;
5285;SDS011;2665;53.112;7.358;2023-04-29T15:16:08;2.80;;;1.80;;
5285;SDS011;2665;53.112;7.358;2023-04-29T15:18:34;3.00;;;1.30;;
5285;SDS011;2665;53.112;7.358;2023-04-29T15:21:00;3.03;;;1.60;;
5285;SDS011;2665;53.112;7.358;2023-04-29T15:23:26;5.53;;;1.50;;
5285;SDS011;2665;53.112;7.358;2023-04-29T15:25:51;1.93;;;1.20;;
5285;SDS011;2665;53.112;7.358;2023-04-29T15:28:17;2.50;;;1.80;;
5285;SDS011;2665;53.112;7.358;2023-04-29T15:30:43;4.73;;;1.57;;
5285;SDS011;2665;53.112;7.358;2023-04-29T15:33:09;4.60;;;2.73;;
5285;SDS011;2665;53.112;7.358;2023-04-29T15:35:34;2.60;;;2.10;;
5285;SDS011;2665;53.112;7.358;2023-04-29T15:38:00;6.70;;;2.50;;